createdAt,value
2017-04-03T00:00:42.944Z,7.9
2017-04-03T00:01:44.754Z,7.9
2017-04-03T00:02:46.567Z,7.9
2017-04-03T00:03:48.373Z,7.9
2017-04-03T00:04:50.197Z,7.9
2017-04-03T00:05:52.037Z,7.9
2017-04-03T00:06:54.206Z,7.9
2017-04-03T00:07:56.025Z,7.9
2017-04-03T00:08:57.837Z,7.9
2017-04-03T00:09:59.654Z,7.9
2017-04-03T00:11:01.469Z,7.9
2017-04-03T00:12:03.280Z,7.9
2017-04-03T00:13:05.091Z,7.9
2017-04-03T00:14:06.910Z,7.9
2017-04-03T00:15:08.726Z,7.9
2017-04-03T00:16:10.531Z,7.9
2017-04-03T00:17:12.400Z,7.9
2017-04-03T00:18:14.202Z,7.9
2017-04-03T00:19:16.370Z,7.9
2017-04-03T00:20:18.190Z,7.9
2017-04-03T00:21:20.344Z,8
2017-04-03T00:22:22.152Z,8
2017-04-03T00:23:23.983Z,7.9
2017-04-03T00:24:25.812Z,8
2017-04-03T00:25:27.626Z,8
2017-04-03T00:26:29.455Z,8
2017-04-03T00:27:31.614Z,7.9
2017-04-03T00:28:33.427Z,7.9
2017-04-03T00:29:35.251Z,7.9
2017-04-03T00:30:37.064Z,8
2017-04-03T00:31:38.888Z,8
2017-04-03T00:32:40.713Z,8
2017-04-03T00:33:42.664Z,8
2017-04-03T00:34:44.476Z,8
2017-04-03T00:35:46.290Z,8
2017-04-03T00:36:48.104Z,7.9
2017-04-03T00:37:49.916Z,7.9
2017-04-03T00:38:51.736Z,7.9
2017-04-03T00:39:53.903Z,7.9
2017-04-03T00:40:55.717Z,7.9
2017-04-03T00:41:57.550Z,7.9
2017-04-03T00:42:59.367Z,8
2017-04-03T00:44:01.192Z,8
2017-04-03T00:45:03.337Z,8
2017-04-03T00:46:05.500Z,7.9
2017-04-03T00:47:07.317Z,7.9
2017-04-03T00:48:09.137Z,7.9
2017-04-03T00:49:11.298Z,7.9
2017-04-03T00:50:13.443Z,8
2017-04-03T00:51:15.255Z,7.9
2017-04-03T00:52:17.078Z,8
2017-04-03T00:53:19.237Z,7.9
2017-04-03T00:54:21.052Z,7.9
2017-04-03T00:55:22.868Z,7.9
2017-04-03T00:56:24.685Z,7.9
2017-04-03T00:57:26.502Z,7.9
2017-04-03T00:58:28.330Z,7.9
2017-04-03T00:59:30.144Z,7.9
2017-04-03T01:00:31.957Z,7.9
2017-04-03T01:01:33.781Z,7.9
2017-04-03T01:02:35.606Z,7.9
2017-04-03T01:03:37.410Z,7.9
2017-04-03T01:04:39.227Z,7.9
2017-04-03T01:05:41.046Z,7.9
2017-04-03T01:06:42.861Z,7.9
2017-04-03T01:07:44.690Z,7.9
2017-04-03T01:08:46.503Z,7.9
2017-04-03T01:09:48.325Z,7.9
2017-04-03T01:10:50.139Z,7.9
2017-04-03T01:11:51.971Z,7.9
2017-04-03T01:12:53.789Z,8
2017-04-03T01:13:55.601Z,7.9
2017-04-03T01:14:57.427Z,7.9
2017-04-03T01:15:59.601Z,7.9
2017-04-03T01:17:01.426Z,7.8
2017-04-03T01:18:03.237Z,7.9
2017-04-03T01:19:05.051Z,7.9
2017-04-03T01:20:06.875Z,7.9
2017-04-03T01:21:08.690Z,7.8
2017-04-03T01:22:10.513Z,7.8
2017-04-03T01:23:12.321Z,7.9
2017-04-03T01:25:18.378Z,7.9
2017-04-03T01:26:20.211Z,7.9
2017-04-03T01:27:54.151Z,7.9
2017-04-03T01:28:55.970Z,7.8
2017-04-03T01:29:57.791Z,7.8
2017-04-03T01:30:59.954Z,7.8
2017-04-03T01:32:01.775Z,7.9
2017-04-03T01:33:03.598Z,7.9
2017-04-03T01:34:05.421Z,7.9
2017-04-03T01:35:07.576Z,7.9
2017-04-03T01:36:09.399Z,7.8
2017-04-03T01:37:11.222Z,7.8
2017-04-03T01:38:13.041Z,7.8
2017-04-03T01:39:14.861Z,7.8
2017-04-03T01:40:16.682Z,7.8
2017-04-03T01:41:18.838Z,7.8
2017-04-03T01:42:20.657Z,7.8
2017-04-03T01:43:22.480Z,7.9
2017-04-03T01:44:24.307Z,7.9
2017-04-03T01:45:26.133Z,7.9
2017-04-03T01:46:27.952Z,7.8
2017-04-03T01:47:29.780Z,7.8
2017-04-03T01:48:31.616Z,7.9
2017-04-03T01:49:33.785Z,7.9
2017-04-03T01:50:35.610Z,7.8
2017-04-03T01:51:37.433Z,7.8
2017-04-03T01:52:39.253Z,7.8
2017-04-03T01:53:41.079Z,7.8
2017-04-03T01:54:42.900Z,7.8
2017-04-03T01:55:44.763Z,7.8
2017-04-03T01:56:46.583Z,7.8
2017-04-03T01:57:48.407Z,7.8
2017-04-03T01:58:50.223Z,7.7
2017-04-03T01:59:52.055Z,7.7
2017-04-03T02:00:54.218Z,7.7
2017-04-03T02:01:56.377Z,7.8
2017-04-03T02:02:58.197Z,7.8
2017-04-03T02:04:00.017Z,7.8
2017-04-03T02:05:01.838Z,7.8
2017-04-03T02:06:03.674Z,7.8
2017-04-03T02:07:05.496Z,7.8
2017-04-03T02:08:07.317Z,7.7
2017-04-03T02:09:09.132Z,7.7
2017-04-03T02:10:11.292Z,7.7
2017-04-03T02:11:13.115Z,7.7
2017-04-03T02:12:14.942Z,7.7
2017-04-03T02:13:16.765Z,7.7
2017-04-03T02:14:18.595Z,7.7
2017-04-03T02:15:20.420Z,7.7
2017-04-03T02:16:22.242Z,7.7
2017-04-03T02:17:24.060Z,7.7
2017-04-03T02:18:25.879Z,7.7
2017-04-03T02:19:27.744Z,7.7
2017-04-03T02:20:29.564Z,7.7
2017-04-03T02:21:31.724Z,7.8
2017-04-03T02:22:33.542Z,7.8
2017-04-03T02:23:35.364Z,7.8
2017-04-03T02:24:37.521Z,7.8
2017-04-03T02:25:39.353Z,7.8
2017-04-03T02:26:41.179Z,7.8
2017-04-03T02:27:42.997Z,7.8
2017-04-03T02:28:44.823Z,7.8
2017-04-03T02:29:47.003Z,7.7
2017-04-03T02:30:48.832Z,7.7
2017-04-03T02:31:50.652Z,7.7
2017-04-03T02:32:52.475Z,7.7
2017-04-03T02:33:54.653Z,7.7
2017-04-03T02:34:56.478Z,7.7
2017-04-03T02:35:58.302Z,7.7
2017-04-03T02:37:00.128Z,7.7
2017-04-03T02:38:01.947Z,7.7
2017-04-03T02:39:04.118Z,7.7
2017-04-03T02:40:06.277Z,7.7
2017-04-03T02:41:08.104Z,7.7
2017-04-03T02:42:09.921Z,7.7
2017-04-03T02:43:11.746Z,7.7
2017-04-03T02:44:13.564Z,7.7
2017-04-03T02:45:15.393Z,7.7
2017-04-03T02:46:17.217Z,7.7
2017-04-03T02:47:19.377Z,7.7
2017-04-03T02:48:21.207Z,7.7
2017-04-03T02:49:23.027Z,7.7
2017-04-03T02:50:25.186Z,7.8
2017-04-03T02:51:27.009Z,7.7
2017-04-03T02:52:28.834Z,7.8
2017-04-03T02:53:30.655Z,7.8
2017-04-03T02:54:32.482Z,7.8
2017-04-03T02:55:34.319Z,7.8
2017-04-03T02:56:36.145Z,7.8
2017-04-03T02:57:37.963Z,7.7
2017-04-03T02:58:39.783Z,7.7
2017-04-03T02:59:41.601Z,7.7
2017-04-03T03:00:43.436Z,7.7
2017-04-03T03:01:45.257Z,7.7
2017-04-03T03:02:47.078Z,7.7
2017-04-03T03:03:48.905Z,7.7
2017-04-03T03:04:50.731Z,7.7
2017-04-03T03:05:52.901Z,7.8
2017-04-03T03:06:54.737Z,7.8
2017-04-03T03:07:56.568Z,7.8
2017-04-03T03:08:58.391Z,7.8
2017-04-03T03:10:00.549Z,7.8
2017-04-03T03:11:02.373Z,7.8
2017-04-03T03:12:04.547Z,7.8
2017-04-03T03:13:06.370Z,7.8
2017-04-03T03:14:08.196Z,7.7
2017-04-03T03:15:10.018Z,7.8
2017-04-03T03:16:12.190Z,7.7
2017-04-03T03:17:14.017Z,7.8
2017-04-03T03:18:15.839Z,7.8
2017-04-03T03:19:17.657Z,7.8
2017-04-03T03:20:19.487Z,7.8
2017-04-03T03:21:21.313Z,7.8
2017-04-03T03:22:23.137Z,7.8
2017-04-03T03:23:24.953Z,7.8
2017-04-03T03:24:26.777Z,7.8
2017-04-03T03:25:28.602Z,7.8
2017-04-03T03:26:30.426Z,7.8
2017-04-03T03:27:32.252Z,7.8
2017-04-03T03:28:34.078Z,7.8
2017-04-03T03:29:35.902Z,7.8
2017-04-03T03:30:37.763Z,7.7
2017-04-03T03:31:39.597Z,7.7
2017-04-03T03:32:41.414Z,7.7
2017-04-03T03:33:43.243Z,7.7
2017-04-03T03:34:45.064Z,7.7
2017-04-03T03:35:46.893Z,7.8
2017-04-03T03:36:49.048Z,7.8
2017-04-03T03:37:50.877Z,7.9
2017-04-03T03:38:53.037Z,7.8
2017-04-03T03:39:54.858Z,7.8
2017-04-03T03:40:56.686Z,7.7
2017-04-03T03:41:58.507Z,7.7
2017-04-03T03:43:00.329Z,7.8
2017-04-03T03:44:02.160Z,7.8
2017-04-03T03:45:03.980Z,7.7
2017-04-03T03:46:06.155Z,7.7
2017-04-03T03:47:07.983Z,7.8
2017-04-03T03:48:09.804Z,7.8
2017-04-03T03:49:11.625Z,7.8
2017-04-03T03:50:13.782Z,7.8
2017-04-03T03:51:15.615Z,7.8
2017-04-03T03:52:17.445Z,7.8
2017-04-03T03:53:19.277Z,7.8
2017-04-03T03:54:21.102Z,7.8
2017-04-03T03:55:22.923Z,7.8
2017-04-03T03:56:24.743Z,7.8
2017-04-03T03:57:26.578Z,7.8
2017-04-03T03:58:28.406Z,7.8
2017-04-03T03:59:30.228Z,7.7
2017-04-03T04:00:32.048Z,7.7
2017-04-03T04:01:33.922Z,7.7
2017-04-03T04:02:35.743Z,7.7
2017-04-03T04:03:37.571Z,7.7
2017-04-03T04:04:39.730Z,7.8
2017-04-03T04:05:41.555Z,7.8
2017-04-03T04:06:43.382Z,7.8
2017-04-03T04:07:45.556Z,7.8
2017-04-03T04:08:47.724Z,7.8
2017-04-03T04:09:49.880Z,7.9
2017-04-03T04:10:51.707Z,7.8
2017-04-03T04:11:53.529Z,7.8
2017-04-03T04:12:55.352Z,7.8
2017-04-03T04:13:57.174Z,7.8
2017-04-03T04:14:59.007Z,7.9
2017-04-03T04:16:00.826Z,7.9
2017-04-03T04:17:02.652Z,7.8
2017-04-03T04:18:04.480Z,7.9
2017-04-03T04:19:06.307Z,7.8
2017-04-03T04:20:08.130Z,7.8
2017-04-03T04:21:09.955Z,7.8
2017-04-03T04:22:11.777Z,7.8
2017-04-03T04:23:13.609Z,7.8
2017-04-03T04:24:15.433Z,7.8
2017-04-03T04:25:17.256Z,7.8
2017-04-03T04:26:19.084Z,7.8
2017-04-03T04:27:21.244Z,7.8
2017-04-03T04:28:23.071Z,7.8
2017-04-03T04:29:25.235Z,7.8
2017-04-03T04:30:27.059Z,7.8
2017-04-03T04:31:28.884Z,7.8
2017-04-03T04:32:30.715Z,7.7
2017-04-03T04:33:32.539Z,7.7
2017-04-03T04:34:34.369Z,7.7
2017-04-03T04:35:36.230Z,7.8
2017-04-03T04:36:38.051Z,7.8
2017-04-03T04:37:39.871Z,7.8
2017-04-03T04:38:41.699Z,7.8
2017-04-03T04:39:43.524Z,7.8
2017-04-03T04:40:45.351Z,7.8
2017-04-03T04:41:47.174Z,7.8
2017-04-03T04:42:49.336Z,7.8
2017-04-03T04:43:51.161Z,7.8
2017-04-03T04:44:53.339Z,7.8
2017-04-03T04:45:55.161Z,7.9
2017-04-03T04:46:57.335Z,7.9
2017-04-03T04:47:59.162Z,7.9
2017-04-03T04:49:00.992Z,7.7
2017-04-03T04:50:02.812Z,7.8
2017-04-03T04:51:04.637Z,7.8
2017-04-03T04:52:06.469Z,7.8
2017-04-03T04:53:08.296Z,7.8
2017-04-03T04:54:10.474Z,7.7
2017-04-03T04:55:12.634Z,7.8
2017-04-03T04:56:14.464Z,7.8
2017-04-03T04:57:16.284Z,7.8
2017-04-03T04:58:18.108Z,7.7
2017-04-03T04:59:19.936Z,7.8
2017-04-03T05:00:21.767Z,7.8
2017-04-03T05:01:23.925Z,7.8
2017-04-03T05:02:25.749Z,7.8
2017-04-03T05:03:27.915Z,7.8
2017-04-03T05:04:29.732Z,7.8
2017-04-03T05:05:31.558Z,7.7
2017-04-03T05:06:33.386Z,7.7
2017-04-03T05:07:35.210Z,7.7
2017-04-03T05:08:37.383Z,7.8
2017-04-03T05:09:39.220Z,7.7
2017-04-03T05:10:41.398Z,7.8
2017-04-03T05:11:43.220Z,7.8
2017-04-03T05:12:45.395Z,7.8
2017-04-03T05:13:47.221Z,7.8
2017-04-03T05:14:49.399Z,7.8
2017-04-03T05:15:51.225Z,7.7
2017-04-03T05:16:53.389Z,7.8
2017-04-03T05:17:55.213Z,7.8
2017-04-03T05:18:57.038Z,7.8
2017-04-03T05:19:58.883Z,7.8
2017-04-03T05:21:01.053Z,7.8
2017-04-03T05:22:03.216Z,7.8
2017-04-03T05:23:05.036Z,7.8
2017-04-03T05:24:06.866Z,7.8
2017-04-03T05:25:08.689Z,7.8
2017-04-03T05:26:10.514Z,7.8
2017-04-03T05:27:12.338Z,7.8
2017-04-03T05:28:14.166Z,7.8
2017-04-03T05:29:15.990Z,7.8
2017-04-03T05:30:17.822Z,7.8
2017-04-03T05:31:19.645Z,7.8
2017-04-03T05:32:21.526Z,7.8
2017-04-03T05:33:23.685Z,7.8
2017-04-03T05:34:25.506Z,7.8
2017-04-03T05:35:27.325Z,7.8
2017-04-03T05:36:29.152Z,7.8
2017-04-03T05:37:31.019Z,7.8
2017-04-03T05:38:33.185Z,7.8
2017-04-03T05:39:35.010Z,7.8
2017-04-03T05:40:36.832Z,7.8
2017-04-03T05:41:38.661Z,7.8
2017-04-03T05:42:40.486Z,7.9
2017-04-03T05:43:42.656Z,7.8
2017-04-03T05:44:44.480Z,7.8
2017-04-03T05:45:46.313Z,7.7
2017-04-03T05:46:48.142Z,7.8
2017-04-03T05:47:49.967Z,7.8
2017-04-03T05:48:51.784Z,7.9
2017-04-03T05:49:53.607Z,7.8
2017-04-03T05:50:55.435Z,7.9
2017-04-03T05:51:57.258Z,7.9
2017-04-03T05:52:59.081Z,7.9
2017-04-03T05:54:00.907Z,7.9
2017-04-03T05:55:03.069Z,7.8
2017-04-03T05:56:04.905Z,7.8
2017-04-03T05:57:06.726Z,7.8
2017-04-03T05:58:08.553Z,7.8
2017-04-03T05:59:10.387Z,7.8
2017-04-03T06:00:12.551Z,7.9
2017-04-03T06:01:14.376Z,7.9
2017-04-03T06:02:16.204Z,7.9
2017-04-03T06:03:18.367Z,7.8
2017-04-03T06:04:20.538Z,7.8
2017-04-03T06:05:22.366Z,7.8
2017-04-03T06:06:24.188Z,7.8
2017-04-03T06:07:26.019Z,7.9
2017-04-03T06:08:27.846Z,7.9
2017-04-03T06:09:30.013Z,7.8
2017-04-03T06:10:31.838Z,7.8
2017-04-03T06:11:33.666Z,7.8
2017-04-03T06:12:35.486Z,7.9
2017-04-03T06:13:37.318Z,7.9
2017-04-03T06:14:39.139Z,7.9
2017-04-03T06:15:40.966Z,7.9
2017-04-03T06:16:42.795Z,7.9
2017-04-03T06:17:44.617Z,7.9
2017-04-03T06:18:46.447Z,7.9
2017-04-03T06:19:48.270Z,7.9
2017-04-03T06:20:50.447Z,7.9
2017-04-03T06:21:52.622Z,7.9
2017-04-03T06:22:54.483Z,7.9
2017-04-03T06:23:56.643Z,7.9
2017-04-03T06:24:58.867Z,7.9
2017-04-03T06:26:00.695Z,8
2017-04-03T06:27:02.519Z,7.9
2017-04-03T06:28:04.349Z,7.9
2017-04-03T06:29:06.177Z,7.9
2017-04-03T06:30:07.998Z,8
2017-04-03T06:31:10.160Z,8
2017-04-03T06:32:11.990Z,8.1
2017-04-03T06:33:13.818Z,8.1
2017-04-03T06:34:15.643Z,8.1
2017-04-03T06:35:17.479Z,8.1
2017-04-03T06:36:19.304Z,8.1
2017-04-03T06:37:21.128Z,8.1
2017-04-03T06:38:22.949Z,8.1
2017-04-03T06:39:24.771Z,8.1
2017-04-03T06:40:26.595Z,8.1
2017-04-03T06:41:28.465Z,8.2
2017-04-03T06:42:30.298Z,8.2
2017-04-03T06:43:32.122Z,8.3
2017-04-03T06:44:34.294Z,8.3
2017-04-03T06:45:36.111Z,8.3
2017-04-03T06:46:37.948Z,8.3
2017-04-03T06:47:39.777Z,8.4
2017-04-03T06:48:41.602Z,8.3
2017-04-03T06:49:43.421Z,8.4
2017-04-03T06:50:45.246Z,8.3
2017-04-03T06:51:47.072Z,8.3
2017-04-03T06:52:48.899Z,8.3
2017-04-03T06:53:50.769Z,8.3
2017-04-03T06:54:52.952Z,8.3
2017-04-03T06:55:54.781Z,8.3
2017-04-03T06:56:56.606Z,8.4
2017-04-03T06:57:58.770Z,8.4
2017-04-03T06:59:00.598Z,8.4
2017-04-03T07:00:02.768Z,8.5
2017-04-03T07:01:04.947Z,8.5
2017-04-03T07:02:06.783Z,8.5
2017-04-03T07:03:08.612Z,8.5
2017-04-03T07:04:10.438Z,8.6
2017-04-03T07:05:12.268Z,8.5
2017-04-03T07:06:14.100Z,8.5
2017-04-03T07:07:16.270Z,8.6
2017-04-03T07:08:18.109Z,8.7
2017-04-03T07:09:19.934Z,8.6
2017-04-03T07:10:21.759Z,8.7
2017-04-03T07:11:23.578Z,8.7
2017-04-03T07:12:25.404Z,8.7
2017-04-03T07:13:27.570Z,8.7
2017-04-03T07:14:29.433Z,8.7
2017-04-03T07:15:31.267Z,8.6
2017-04-03T07:16:33.092Z,8.7
2017-04-03T07:17:34.917Z,8.7
2017-04-03T07:18:36.743Z,8.7
2017-04-03T07:19:39.255Z,8.7
2017-04-03T07:20:41.414Z,8.7
2017-04-03T07:21:43.242Z,8.7
2017-04-03T07:22:45.076Z,8.7
2017-04-03T07:23:46.895Z,8.7
2017-04-03T07:24:48.728Z,8.7
2017-04-03T07:25:50.557Z,8.6
2017-04-03T07:26:52.732Z,8.7
2017-04-03T07:27:54.579Z,8.8
2017-04-03T07:28:56.396Z,8.7
2017-04-03T07:29:58.222Z,8.8
2017-04-03T07:31:00.049Z,8.8
2017-04-03T07:32:01.879Z,8.8
2017-04-03T07:33:03.709Z,8.9
2017-04-03T07:34:05.540Z,8.9
2017-04-03T07:35:07.363Z,8.9
2017-04-03T07:36:09.183Z,9
2017-04-03T07:37:11.012Z,9.1
2017-04-03T07:38:12.838Z,9
2017-04-03T07:39:14.664Z,8.9
2017-04-03T07:40:16.493Z,9
2017-04-03T07:41:18.662Z,9.1
2017-04-03T07:42:20.828Z,8.9
2017-04-03T07:43:22.654Z,8.9
2017-04-03T07:44:24.476Z,9.1
2017-04-03T07:45:26.304Z,9.1
2017-04-03T07:46:28.136Z,9
2017-04-03T07:47:29.998Z,9.1
2017-04-03T07:48:32.163Z,9
2017-04-03T07:49:34.067Z,9.1
2017-04-03T07:50:35.894Z,9.2
2017-04-03T07:51:37.796Z,9.3
2017-04-03T07:52:39.660Z,9.3
2017-04-03T07:53:41.871Z,9.3
2017-04-03T07:54:43.719Z,9.3
2017-04-03T07:55:45.546Z,9.4
2017-04-03T07:56:47.381Z,9.4
2017-04-03T07:57:49.218Z,9.4
2017-04-03T07:58:51.097Z,9.3
2017-04-03T07:59:52.953Z,9.4
2017-04-03T08:00:54.786Z,9.4
2017-04-03T08:01:57.005Z,9.4
2017-04-03T08:02:58.844Z,9.2
2017-04-03T08:04:00.726Z,9.2
2017-04-03T08:05:02.901Z,9.4
2017-04-03T08:06:05.092Z,9.5
2017-04-03T08:07:06.921Z,9.5
2017-04-03T08:08:08.870Z,9.5
2017-04-03T08:09:11.042Z,9.5
2017-04-03T08:10:12.960Z,9.4
2017-04-03T08:11:14.785Z,9.3
2017-04-03T08:12:16.616Z,9.3
2017-04-03T08:13:18.453Z,9.4
2017-04-03T08:14:20.285Z,9.5
2017-04-03T08:15:22.115Z,9.6
2017-04-03T08:16:23.962Z,9.5
2017-04-03T08:17:25.856Z,9.5
2017-04-03T08:18:27.685Z,9.3
2017-04-03T08:19:29.517Z,9.3
2017-04-03T08:20:31.353Z,9.3
2017-04-03T08:21:33.357Z,9.3
2017-04-03T08:22:35.520Z,9.3
2017-04-03T08:23:37.350Z,9.3
2017-04-03T08:24:39.352Z,9.5
2017-04-03T08:25:41.178Z,9.4
2017-04-03T08:26:43.003Z,9.4
2017-04-03T08:27:44.834Z,9.5
2017-04-03T08:28:47.020Z,9.5
2017-04-03T08:29:48.848Z,9.6
2017-04-03T08:30:50.675Z,9.4
2017-04-03T08:31:52.504Z,9.5
2017-04-03T08:32:54.342Z,9.5
2017-04-03T08:33:56.183Z,9.4
2017-04-03T08:34:58.050Z,9.4
2017-04-03T08:35:59.887Z,9.5
2017-04-03T08:37:01.710Z,9.5
2017-04-03T08:38:03.542Z,9.5
2017-04-03T08:39:05.371Z,9.6
2017-04-03T08:40:07.374Z,9.6
2017-04-03T08:41:09.199Z,9.5
2017-04-03T08:42:11.038Z,9.6
2017-04-03T08:43:12.866Z,9.7
2017-04-03T08:44:14.879Z,9.6
2017-04-03T08:45:16.710Z,9.5
2017-04-03T08:46:18.886Z,9.5
2017-04-03T08:47:20.712Z,9.5
2017-04-03T08:48:22.731Z,9.6
2017-04-03T08:49:24.558Z,9.6
2017-04-03T08:50:26.386Z,9.6
2017-04-03T08:51:28.217Z,9.7
2017-04-03T08:52:30.169Z,9.6
2017-04-03T08:53:31.994Z,9.7
2017-04-03T08:54:33.824Z,9.8
2017-04-03T08:55:35.656Z,9.9
2017-04-03T08:56:37.487Z,9.9
2017-04-03T08:57:39.317Z,9.9
2017-04-03T08:58:41.144Z,10.1
2017-04-03T08:59:43.261Z,10.1
2017-04-03T09:00:45.089Z,10.1
2017-04-03T09:01:46.927Z,10
2017-04-03T09:02:48.767Z,10.1
2017-04-03T09:03:50.594Z,10.1
2017-04-03T09:04:52.769Z,10.1
2017-04-03T09:05:54.593Z,10.1
2017-04-03T09:06:56.425Z,10.2
2017-04-03T09:07:58.247Z,10.1
2017-04-03T09:09:00.078Z,10.1
2017-04-03T09:10:01.907Z,10.2
2017-04-03T09:11:03.730Z,10.1
2017-04-03T09:12:05.556Z,10.3
2017-04-03T09:13:07.383Z,10.1
2017-04-03T09:14:09.203Z,9.8
2017-04-03T09:15:11.037Z,10
2017-04-03T09:16:12.865Z,10.1
2017-04-03T09:17:14.693Z,10.2
2017-04-03T09:18:16.564Z,10
2017-04-03T09:19:18.400Z,10
2017-04-03T09:20:20.225Z,10.2
2017-04-03T09:21:22.060Z,10.3
2017-04-03T09:22:23.886Z,10.3
2017-04-03T09:23:25.715Z,10.3
2017-04-03T09:24:27.875Z,10.4
2017-04-03T09:25:29.699Z,10.5
2017-04-03T09:26:31.531Z,10.5
2017-04-03T09:27:33.394Z,10.3
2017-04-03T09:28:35.228Z,10.5
2017-04-03T09:29:37.053Z,10.3
2017-04-03T09:30:38.881Z,10.3
2017-04-03T09:31:40.708Z,10.2
2017-04-03T09:32:42.755Z,10.4
2017-04-03T09:33:44.707Z,10.3
2017-04-03T09:34:46.538Z,10.4
2017-04-03T09:35:48.369Z,10.5
2017-04-03T09:36:50.201Z,10.4
2017-04-03T09:37:52.180Z,10.4
2017-04-03T09:38:54.007Z,10.6
2017-04-03T09:39:56.168Z,10.5
2017-04-03T09:40:58.249Z,10.3
2017-04-03T09:42:00.078Z,10.5
2017-04-03T09:43:01.912Z,10.7
2017-04-03T09:44:03.753Z,10.7
2017-04-03T09:45:05.918Z,10.6
2017-04-03T09:46:07.760Z,10.7
2017-04-03T09:47:09.600Z,10.8
2017-04-03T09:48:11.766Z,10.9
2017-04-03T09:49:13.879Z,10.9
2017-04-03T09:50:15.703Z,10.9
2017-04-03T09:51:17.532Z,11
2017-04-03T09:52:19.485Z,11
2017-04-03T09:53:21.726Z,11
2017-04-03T09:54:23.559Z,10.8
2017-04-03T09:55:25.432Z,10.9
2017-04-03T09:56:27.603Z,10.9
2017-04-03T09:57:29.766Z,10.6
2017-04-03T09:58:31.599Z,10.7
2017-04-03T09:59:33.772Z,10.7
2017-04-03T10:00:35.947Z,10.7
2017-04-03T10:01:38.130Z,10.6
2017-04-03T10:02:39.962Z,10.5
2017-04-03T10:03:41.795Z,10.4
2017-04-03T10:04:43.633Z,10.3
2017-04-03T10:05:46.210Z,10.1
2017-04-03T10:06:48.041Z,10.2
2017-04-03T10:07:49.883Z,10
2017-04-03T10:08:51.719Z,9.9
2017-04-03T10:09:53.967Z,10.1
2017-04-03T10:10:55.818Z,10.1
2017-04-03T10:11:57.645Z,10.1
2017-04-03T10:12:59.474Z,10.1
2017-04-03T10:14:01.312Z,10.1
2017-04-03T10:15:03.299Z,9.9
2017-04-03T10:16:05.123Z,9.7
2017-04-03T10:17:06.949Z,9.9
2017-04-03T10:18:08.788Z,9.9
2017-04-03T10:19:10.961Z,9.8
2017-04-03T10:20:12.789Z,10
2017-04-03T10:21:14.666Z,9.8
2017-04-03T10:22:16.491Z,10
2017-04-03T10:23:18.323Z,10
2017-04-03T10:24:20.157Z,10
2017-04-03T10:25:21.985Z,10
2017-04-03T10:26:23.815Z,10
2017-04-03T10:27:25.957Z,10
2017-04-03T10:28:27.782Z,9.8
2017-04-03T10:29:29.614Z,9.9
2017-04-03T10:30:31.470Z,9.9
2017-04-03T10:31:33.315Z,9.9
2017-04-03T10:32:35.146Z,9.9
2017-04-03T10:33:36.991Z,9.9
2017-04-03T10:34:38.824Z,9.8
2017-04-03T10:35:40.650Z,9.8
2017-04-03T10:36:42.478Z,9.9
2017-04-03T10:37:44.314Z,9.9
2017-04-03T10:38:46.481Z,10
2017-04-03T10:39:48.726Z,10.1
2017-04-03T10:40:50.607Z,10.1
2017-04-03T10:41:52.831Z,10
2017-04-03T10:42:54.983Z,9.9
2017-04-03T10:43:56.862Z,10
2017-04-03T10:44:58.698Z,9.9
2017-04-03T10:46:01.153Z,10
2017-04-03T10:47:02.990Z,10
2017-04-03T10:48:04.816Z,9.9
2017-04-03T10:49:06.655Z,10
2017-04-03T10:50:08.480Z,10.3
2017-04-03T10:51:10.312Z,10.1
2017-04-03T10:52:12.139Z,10.2
2017-04-03T10:53:13.970Z,10.2
2017-04-03T10:54:15.794Z,10.1
2017-04-03T10:55:17.625Z,10
2017-04-03T10:56:19.452Z,10
2017-04-03T10:57:21.285Z,10
2017-04-03T10:58:23.125Z,9.9
2017-04-03T10:59:24.959Z,9.9
2017-04-03T11:00:26.785Z,9.9
2017-04-03T11:01:28.616Z,10
2017-04-03T11:02:30.891Z,10
2017-04-03T11:03:32.722Z,9.9
2017-04-03T11:04:34.595Z,10
2017-04-03T11:05:36.425Z,10.2
2017-04-03T11:06:38.285Z,10.3
2017-04-03T11:07:40.111Z,10.3
2017-04-03T11:08:41.939Z,10.1
2017-04-03T11:09:43.769Z,10.2
2017-04-03T11:10:45.593Z,10.3
2017-04-03T11:11:47.421Z,10.4
2017-04-03T11:12:49.247Z,10.3
2017-04-03T11:13:51.421Z,10.2
2017-04-03T11:14:54.014Z,10.2
2017-04-03T11:15:55.841Z,10.3
2017-04-03T11:16:57.670Z,10.1
2017-04-03T11:17:59.495Z,10
2017-04-03T11:19:01.335Z,10.2
2017-04-03T11:20:03.501Z,10.3
2017-04-03T11:21:05.339Z,10.4
2017-04-03T11:22:07.516Z,10.6
2017-04-03T11:23:09.686Z,10.5
2017-04-03T11:24:11.897Z,10.4
2017-04-03T11:25:13.722Z,10.5
2017-04-03T11:26:15.553Z,10.3
2017-04-03T11:27:17.385Z,10.2
2017-04-03T11:28:19.571Z,10.4
2017-04-03T11:29:21.397Z,10.3
2017-04-03T11:30:23.229Z,10.4
2017-04-03T11:31:25.070Z,10.5
2017-04-03T11:32:26.898Z,10.8
2017-04-03T11:33:28.729Z,10.7
2017-04-03T11:34:30.596Z,10.6
2017-04-03T11:35:32.435Z,10.7
2017-04-03T11:36:35.017Z,10.8
2017-04-03T11:37:36.849Z,11
2017-04-03T11:38:38.744Z,11
2017-04-03T11:39:40.579Z,11
2017-04-03T11:40:42.413Z,11.2
2017-04-03T11:41:44.244Z,11.2
2017-04-03T11:42:46.075Z,11.2
2017-04-03T11:43:47.916Z,11.1
2017-04-03T11:44:49.745Z,11.1
2017-04-03T11:45:51.956Z,10.9
2017-04-03T11:46:53.784Z,11
2017-04-03T11:47:55.617Z,11
2017-04-03T11:48:57.451Z,11.2
2017-04-03T11:49:59.627Z,10.9
2017-04-03T11:51:02.200Z,10.9
2017-04-03T11:52:04.035Z,10.9
2017-04-03T11:53:05.874Z,10.9
2017-04-03T11:54:07.705Z,11
2017-04-03T11:55:09.531Z,10.9
2017-04-03T11:56:11.359Z,10.8
2017-04-03T11:57:13.186Z,10.9
2017-04-03T11:58:15.373Z,10.8
2017-04-03T11:59:17.221Z,10.8
2017-04-03T12:00:19.100Z,10.7
2017-04-03T12:01:20.941Z,10.7
2017-04-03T12:02:22.797Z,10.8
2017-04-03T12:03:24.625Z,10.8
2017-04-03T12:04:26.793Z,10.8
2017-04-03T12:05:28.674Z,10.8
2017-04-03T12:06:30.502Z,11
2017-04-03T12:07:32.460Z,10.9
2017-04-03T12:08:34.632Z,10.9
2017-04-03T12:09:36.567Z,11
2017-04-03T12:10:38.729Z,11
2017-04-03T12:11:40.601Z,10.9
2017-04-03T12:12:42.432Z,11
2017-04-03T12:13:44.277Z,11
2017-04-03T12:14:46.106Z,11.1
2017-04-03T12:15:47.943Z,11
2017-04-03T12:16:49.844Z,11
2017-04-03T12:17:51.683Z,10.8
2017-04-03T12:18:53.557Z,10.9
2017-04-03T12:19:55.735Z,10.7
2017-04-03T12:20:57.664Z,11.1
2017-04-03T12:21:59.503Z,11.1
2017-04-03T12:23:01.349Z,11
2017-04-03T12:24:03.180Z,11.2
2017-04-03T12:25:05.138Z,11.3
2017-04-03T12:26:06.980Z,11.1
2017-04-03T12:27:09.342Z,11.2
2017-04-03T12:28:11.512Z,11.1
2017-04-03T12:29:13.686Z,11.2
2017-04-03T12:30:15.673Z,11.1
2017-04-03T12:31:17.501Z,11.3
2017-04-03T12:32:19.330Z,11.2
2017-04-03T12:33:21.160Z,11.2
2017-04-03T12:34:22.991Z,11.5
2017-04-03T12:35:28.256Z,11.5
2017-04-03T12:36:30.563Z,11.7
2017-04-03T12:37:32.399Z,11.7
2017-04-03T12:38:34.929Z,11.8
2017-04-03T12:39:37.440Z,11.7
2017-04-03T12:40:39.268Z,12.1
2017-04-03T12:41:41.105Z,12
2017-04-03T12:42:42.934Z,11.9
2017-04-03T12:43:44.765Z,12.1
2017-04-03T12:44:46.593Z,12.6
2017-04-03T12:45:48.429Z,12.8
2017-04-03T12:46:50.269Z,12.4
2017-04-03T12:52:17.695Z,12.1
2017-04-03T12:53:22.882Z,12.1
2017-04-03T12:54:26.793Z,12.2
2017-04-03T12:55:29.403Z,11.9
2017-04-03T12:56:32.852Z,12.2
2017-04-03T12:57:35.580Z,12
2017-04-03T12:58:53.164Z,12.3
2017-04-03T12:59:55.794Z,12.2
2017-04-03T13:00:58.146Z,12.7
2017-04-03T13:02:00.650Z,12.9
2017-04-03T13:03:04.666Z,12.8
2017-04-03T13:04:07.389Z,12.8
2017-04-03T13:05:09.220Z,12.7
2017-04-03T13:06:11.062Z,13.2
2017-04-03T13:07:14.796Z,12.9
2017-04-03T13:08:16.654Z,12.6
2017-04-03T13:09:18.659Z,13.1
2017-04-03T13:10:20.486Z,13.1
2017-04-03T13:11:22.323Z,12.8
2017-04-03T13:12:24.177Z,12.8
2017-04-03T13:13:26.011Z,13
2017-04-03T13:14:27.949Z,12.3
2017-04-03T13:15:29.781Z,12.3
2017-04-03T13:16:31.619Z,12.7
2017-04-03T13:17:33.482Z,12.8
2017-04-03T13:18:35.317Z,12.5
2017-04-03T13:19:37.141Z,13.4
2017-04-03T13:20:39.016Z,13.6
2017-04-03T13:21:41.186Z,13.8
2017-04-03T13:22:43.387Z,14
2017-04-03T13:23:45.231Z,14.2
2017-04-03T13:24:47.436Z,14.3
2017-04-03T13:25:49.435Z,14.2
2017-04-03T13:26:51.326Z,14.7
2017-04-03T13:27:53.166Z,15.1
2017-04-03T13:28:54.994Z,15
2017-04-03T13:29:57.251Z,14.6
2017-04-03T13:30:59.100Z,14.7
2017-04-03T13:32:00.964Z,14.9
2017-04-03T13:33:02.816Z,14.9
2017-04-03T13:34:04.662Z,15.2
2017-04-03T13:35:06.504Z,14.9
2017-04-03T13:36:08.747Z,15.5
2017-04-03T13:37:10.660Z,15.5
2017-04-03T13:38:12.491Z,14.7
2017-04-03T13:39:14.329Z,14.9
2017-04-03T13:40:16.353Z,15.1
2017-04-03T13:41:18.198Z,15
2017-04-03T13:42:20.040Z,14.8
2017-04-03T13:43:22.254Z,14.3
2017-04-03T13:44:24.159Z,14.5
2017-04-03T13:45:26.005Z,14.6
2017-04-03T13:46:27.845Z,14.8
2017-04-03T13:47:29.682Z,15
2017-04-03T13:48:31.671Z,14.9
2017-04-03T13:49:33.511Z,15
2017-04-03T13:50:35.342Z,15.3
2017-04-03T13:51:37.184Z,15.2
2017-04-03T13:52:39.018Z,15.3
2017-04-03T13:53:40.857Z,15.5
2017-04-03T13:54:42.698Z,15.2
2017-04-03T13:55:44.550Z,15
2017-04-03T13:59:40.557Z,15.2
2017-04-03T14:00:42.374Z,14.9
2017-04-03T14:01:44.190Z,15.1
2017-04-03T14:02:46.001Z,15.1
2017-04-03T14:03:48.158Z,15.5
2017-04-03T14:04:49.967Z,15.8
2017-04-03T14:05:51.781Z,15.3
2017-04-03T14:06:53.602Z,15.3
2017-04-03T14:07:55.410Z,15.1
2017-04-03T14:08:57.236Z,14.7
2017-04-03T14:09:59.055Z,14.4
2017-04-03T14:11:00.879Z,14.6
2017-04-03T14:12:02.830Z,14.5
2017-04-03T14:13:04.648Z,14.3
2017-04-03T14:14:06.464Z,13.8
2017-04-03T14:15:08.384Z,13.4
2017-04-03T14:16:10.198Z,13.5
2017-04-03T14:17:12.009Z,13.9